Time;durP1;ratioP1;P1;durP2;ratioP2;P2;SDS_P1;SDS_P2;PMS_P1;PMS_P2;Temp;Humidity;BMP_temperature;BMP_pressure;BME280_temperature;BME280_humidity;BME280_pressure;Samples;Min_cycle;Max_cycle;Signal;HPM_P1;HPM_P2
2022/05/24 00:02:12;;;;;;;24.38;16.45;;;;;;;16.07;100.00;99230.19;8272157;28;20276;-64
2022/05/24 00:06:15;;;;;;;21.40;15.70;;;;;;;16.06;100.00;99233.13;8261254;28;20042;-64
2022/05/24 00:10:19;;;;;;;17.13;13.15;;;;;;;16.04;100.00;99235.22;8260740;28;20390;-65
2022/05/24 00:15:19;;;;;;;15.93;12.35;;;;;;;15.97;100.00;99234.34;8261076;28;20035;-64
2022/05/24 00:18:40;;;;;;;16.00;11.60;;;;;;;16.06;100.00;99216.75;8260059;28;20410;-64
2022/05/24 00:22:41;;;;;;;14.95;11.15;;;;;;;15.99;100.00;99216.75;8231050;28;20035;-64
2022/05/24 00:26:41;;;;;;;13.90;10.95;;;;;;;16.03;100.00;99209.00;8228571;28;20042;-64
2022/05/24 00:30:45;;;;;;;15.45;11.35;;;;;;;16.06;100.00;99203.97;8228324;28;20501;-64
2022/05/24 00:34:45;;;;;;;16.52;9.95;;;;;;;16.05;100.00;99207.75;8228710;28;20062;-64
2022/05/24 00:38:45;;;;;;;13.02;10.23;;;;;;;15.98;100.00;99204.16;8227590;28;20047;-64
2022/05/24 00:42:48;;;;;;;13.38;9.98;;;;;;;15.93;100.00;99200.38;8228500;28;20054;-64
2022/05/24 00:46:58;;;;;;;15.70;10.38;;;;;;;15.89;100.00;99202.66;8228419;28;20035;-64
2022/05/24 00:51:01;;;;;;;16.00;11.43;;;;;;;15.84;100.00;99212.53;8251100;28;20359;-64
2022/05/24 00:55:01;;;;;;;12.38;9.98;;;;;;;16.04;100.00;99207.97;8267485;28;20101;-64
2022/05/24 00:59:07;;;;;;;14.95;9.60;;;;;;;16.16;100.00;99215.31;8260288;28;20042;-64
2022/05/24 01:05:18;;;;;;;12.82;9.35;;;;;;;16.28;100.00;99215.53;8260281;28;20038;-64
2022/05/24 01:08:07;;;;;;;13.43;9.80;;;;;;;16.26;100.00;99217.63;8268470;28;20047;-64
2022/05/24 01:12:20;;;;;;;13.38;9.60;;;;;;;16.26;100.00;99217.63;8273645;28;20031;-64
2022/05/24 01:16:20;;;;;;;17.30;11.20;;;;;;;16.19;100.00;99211.34;8258942;28;20041;-64
2022/05/24 01:20:21;;;;;;;12.88;10.00;;;;;;;16.12;100.00;99221.38;8259282;28;20030;-64
2022/05/24 01:24:33;;;;;;;13.45;10.63;;;;;;;16.08;100.00;99225.56;8259936;28;20509;-64
2022/05/24 01:28:40;;;;;;;21.42;11.60;;;;;;;16.04;100.00;99216.97;8259389;28;20049;-64
2022/05/24 01:37:01;;;;;;;16.73;12.52;;;;;;;16.01;100.00;99224.72;8292133;28;20093;-64
2022/05/24 01:41:03;;;;;;;19.45;13.38;;;;;;;16.00;100.00;99221.16;8291149;28;20053;-64
2022/05/24 01:45:11;;;;;;;18.63;12.75;;;;;;;16.00;100.00;99229.34;8291988;28;20044;-64
2022/05/24 01:49:21;;;;;;;18.13;11.45;;;;;;;15.99;100.00;99232.25;8290136;28;20118;-64
2022/05/24 01:53:30;;;;;;;23.75;12.30;;;;;;;15.98;100.00;99230.59;8265721;28;20038;-64
2022/05/24 01:57:34;;;;;;;19.10;11.00;;;;;;;15.89;100.00;99248.19;8271575;28;20041;-64
2022/05/24 02:01:48;;;;;;;18.83;11.07;;;;;;;15.82;100.00;99244.59;8280134;28;20133;-64
2022/05/24 02:05:48;;;;;;;17.27;11.05;;;;;;;15.73;100.00;99242.06;8266097;28;20042;-64
2022/05/24 02:09:52;;;;;;;16.30;9.33;;;;;;;15.68;100.00;99244.53;8263856;28;20139;-64
2022/05/24 02:14:04;;;;;;;14.73;9.07;;;;;;;15.63;100.00;99249.78;8264419;28;20277;-64
2022/05/24 02:18:14;;;;;;;10.95;7.28;;;;;;;15.54;100.00;99233.81;8264377;28;20125;-64
2022/05/24 02:22:19;;;;;;;11.77;7.70;;;;;;;15.52;100.00;99223.09;8264212;28;20030;-64
2022/05/24 02:26:22;;;;;;;10.93;6.38;;;;;;;15.46;100.00;99226.66;8264143;28;20046;-64
2022/05/24 02:30:25;;;;;;;20.45;7.32;;;;;;;15.51;100.00;99213.28;8263430;28;20038;-64
2022/05/24 02:34:25;;;;;;;17.40;7.78;;;;;;;15.31;100.00;99204.13;8263975;28;20049;-64
2022/05/24 02:38:26;;;;;;;10.57;6.22;;;;;;;15.40;100.00;99205.66;8263747;28;20035;-64
2022/05/24 02:42:26;;;;;;;13.80;7.18;;;;;;;15.57;100.00;99217.91;8263189;28;20514;-64
2022/05/24 02:46:30;;;;;;;10.80;5.93;;;;;;;15.47;100.00;99220.16;8264118;28;20058;-64
2022/05/24 02:50:30;;;;;;;9.55;5.28;;;;;;;15.45;98.97;99214.06;8273857;28;20521;-64
2022/05/24 02:54:31;;;;;;;7.65;4.30;;;;;;;15.41;99.05;99212.78;8263001;28;20823;-64
2022/05/24 02:58:32;;;;;;;11.38;4.65;;;;;;;15.32;98.41;99208.56;8263088;28;20057;-63
2022/05/24 03:02:32;;;;;;;10.95;4.97;;;;;;;15.26;99.21;99206.63;8263160;28;20076;-63
2022/05/24 03:09:33;;;;;;;11.30;5.73;;;;;;;15.24;99.01;99216.88;8262803;28;20050;-63
2022/05/24 03:10:53;;;;;;;12.55;5.43;;;;;;;15.32;100.00;99222.16;8262695;28;20357;-63
2022/05/24 03:14:55;;;;;;;10.77;5.95;;;;;;;15.29;100.00;99229.88;8263086;28;20038;-63
2022/05/24 03:18:55;;;;;;;7.10;5.07;;;;;;;15.15;99.83;99223.53;8262566;28;20161;-63
2022/05/24 03:22:55;;;;;;;13.43;6.38;;;;;;;15.10;100.00;99226.00;8273632;28;20125;-63
2022/05/24 03:26:56;;;;;;;11.07;5.50;;;;;;;15.22;99.53;99223.59;8261976;28;20061;-63
2022/05/24 03:30:56;;;;;;;10.20;5.13;;;;;;;15.21;98.92;99233.63;8261885;28;20030;-63
2022/05/24 03:34:56;;;;;;;8.83;5.10;;;;;;;15.22;99.16;99224.41;8261693;28;20042;-63
2022/05/24 03:38:57;;;;;;;10.83;5.87;;;;;;;15.14;98.73;99227.31;8271335;28;20323;-63
2022/05/24 03:42:58;;;;;;;9.25;4.82;;;;;;;15.18;97.96;99228.56;8294337;28;20360;-63
2022/05/24 03:46:58;;;;;;;11.25;4.97;;;;;;;15.24;98.05;99227.78;8286328;28;20038;-63
2022/05/24 03:50:58;;;;;;;12.17;4.63;;;;;;;15.19;96.85;99240.31;8261388;28;20113;-63
2022/05/24 03:54:59;;;;;;;8.45;4.13;;;;;;;15.14;97.07;99254.53;8261313;28;20672;-63
2022/05/24 03:59:00;;;;;;;7.45;4.03;;;;;;;15.16;95.87;99263.31;8261461;28;20038;-63
2022/05/24 04:03:01;;;;;;;13.45;3.65;;;;;;;15.02;94.90;99272.47;8274112;28;20034;-63
2022/05/24 04:07:01;;;;;;;10.48;3.22;;;;;;;14.87;97.88;99279.03;8269055;28;20574;-63
2022/05/24 04:11:07;;;;;;;10.82;3.70;;;;;;;14.81;100.00;99267.06;8259626;28;20411;-63
2022/05/24 04:15:07;;;;;;;13.10;4.47;;;;;;;14.70;100.00;99267.59;8256893;28;20118;-63
2022/05/24 04:19:08;;;;;;;10.45;4.00;;;;;;;14.47;100.00;99256.13;8257410;28;20046;-63
2022/05/24 04:23:14;;;;;;;5.60;3.10;;;;;;;14.14;100.00;99260.38;8261197;28;20078;-63
2022/05/24 04:27:14;;;;;;;11.65;3.80;;;;;;;13.95;100.00;99258.28;8263332;28;20285;-64
2022/05/24 04:31:14;;;;;;;13.65;4.07;;;;;;;13.91;100.00;99258.88;8261592;28;20046;-64
2022/05/24 04:35:15;;;;;;;7.33;3.40;;;;;;;13.78;100.00;99268.56;8257702;28;20058;-64
2022/05/24 04:39:16;;;;;;;15.80;5.13;;;;;;;13.90;100.00;99282.47;8239281;28;20288;-64
2022/05/24 04:43:16;;;;;;;11.88;5.20;;;;;;;13.92;100.00;99294.00;8255325;28;20046;-64
2022/05/24 04:47:18;;;;;;;15.82;5.18;;;;;;;13.89;100.00;99310.69;8257269;28;20162;-64
2022/05/24 04:51:18;;;;;;;17.25;5.22;;;;;;;14.06;100.00;99317.56;8253028;28;20089;-64
2022/05/24 04:55:18;;;;;;;10.87;4.60;;;;;;;13.95;100.00;99326.22;8251109;28;20042;-64
2022/05/24 04:59:19;;;;;;;7.63;4.03;;;;;;;13.86;100.00;99335.53;8272874;28;20280;-64
2022/05/24 05:03:21;;;;;;;11.23;4.68;;;;;;;13.80;100.00;99339.00;8256836;28;20281;-64
2022/05/24 05:07:21;;;;;;;13.25;4.50;;;;;;;13.70;100.00;99354.75;8256959;28;20061;-63
2022/05/24 05:11:34;;;;;;;9.65;3.90;;;;;;;13.76;100.00;99381.16;8264262;28;20042;-64
2022/05/24 05:15:37;;;;;;;8.75;4.25;;;;;;;13.67;100.00;99376.84;8261570;28;20129;-64
2022/05/24 05:19:37;;;;;;;11.07;3.67;;;;;;;13.53;100.00;99385.84;8257396;28;20082;-63
2022/05/24 05:23:38;;;;;;;8.60;4.05;;;;;;;13.49;100.00;99408.97;8268131;28;20053;-63
2022/05/24 05:27:38;;;;;;;7.00;3.10;;;;;;;13.41;100.00;99409.03;8272370;28;20165;-63
2022/05/24 05:31:38;;;;;;;10.27;3.55;;;;;;;13.35;100.00;99409.78;8273533;28;20041;-63
2022/05/24 05:35:39;;;;;;;6.30;2.67;;;;;;;13.29;100.00;99407.81;8285502;28;20050;-63
2022/05/24 05:39:39;;;;;;;11.70;3.13;;;;;;;13.11;100.00;99418.16;8266677;28;20405;-63
2022/05/24 05:43:40;;;;;;;4.95;2.05;;;;;;;13.15;100.00;99424.91;8262093;28;20289;-63
2022/05/24 05:47:40;;;;;;;7.80;2.67;;;;;;;13.04;100.00;99438.91;8250202;28;20128;-63
2022/05/24 05:51:41;;;;;;;4.03;1.20;;;;;;;12.90;100.00;99448.66;8252699;28;20089;-63
2022/05/24 05:55:41;;;;;;;3.58;1.00;;;;;;;12.87;100.00;99453.63;8243246;28;20046;-63
2022/05/24 05:59:42;;;;;;;3.53;1.52;;;;;;;12.93;100.00;99448.28;8254305;28;20176;-63
2022/05/24 06:03:42;;;;;;;4.40;1.20;;;;;;;12.77;100.00;99444.84;8257845;28;20384;-64
2022/05/24 06:07:43;;;;;;;3.40;1.30;;;;;;;12.94;100.00;99449.16;8259072;28;20273;-63
2022/05/24 06:11:44;;;;;;;2.95;1.27;;;;;;;12.93;100.00;99447.47;8258334;28;20050;-63
2022/05/24 06:15:49;;;;;;;4.32;1.45;;;;;;;12.97;100.00;99454.22;8284970;28;20073;-63
2022/05/24 06:19:49;;;;;;;6.43;1.15;;;;;;;12.97;100.00;99454.22;8252594;28;20409;-63
2022/05/24 06:23:50;;;;;;;5.55;1.20;;;;;;;13.00;100.00;99459.31;8258763;28;20042;-63
2022/05/24 06:27:51;;;;;;;3.85;1.30;;;;;;;13.18;100.00;99470.69;8239240;28;20045;-63
2022/05/24 06:31:52;;;;;;;3.70;1.30;;;;;;;13.18;100.00;99485.09;8257609;28;20592;-63
2022/05/24 06:35:53;;;;;;;6.57;0.80;;;;;;;13.30;100.00;99477.38;8257467;28;20380;-63
2022/05/24 06:39:53;;;;;;;2.92;0.95;;;;;;;13.40;100.00;99480.66;8255035;28;20077;-63
2022/05/24 06:43:53;;;;;;;2.07;1.00;;;;;;;13.57;100.00;99484.91;8258134;28;20097;-63
2022/05/24 06:47:54;;;;;;;5.25;1.40;;;;;;;13.68;100.00;99493.47;8250052;28;20694;-63
2022/05/24 06:51:54;;;;;;;5.53;1.20;;;;;;;13.93;100.00;99491.31;8254275;28;20034;-63
2022/05/24 06:55:55;;;;;;;7.55;1.25;;;;;;;14.19;100.00;99508.00;8257775;28;20796;-64
2022/05/24 07:04:15;;;;;;;6.50;1.23;;;;;;;14.54;100.00;99523.56;8256250;28;20030;-64
2022/05/24 07:08:16;;;;;;;5.82;1.52;;;;;;;15.16;99.07;99529.31;8240018;28;20121;-64
2022/05/24 07:12:18;;;;;;;6.22;1.20;;;;;;;15.52;97.92;99535.53;8253488;28;20125;-64
2022/05/24 07:16:19;;;;;;;3.67;1.27;;;;;;;15.43;95.83;99547.59;8256980;28;20506;-64
2022/05/24 07:20:19;;;;;;;4.38;0.75;;;;;;;15.61;94.75;99551.56;8254522;28;20485;-64
2022/05/24 07:24:20;;;;;;;4.63;1.00;;;;;;;15.58;94.11;99549.22;8249771;28;20104;-64
2022/05/24 07:28:22;;;;;;;3.13;0.70;;;;;;;15.65;94.36;99560.19;8255786;28;20177;-64
2022/05/24 07:32:22;;;;;;;4.05;1.23;;;;;;;15.86;90.38;99553.84;8254229;28;20269;-64
2022/05/24 07:36:22;;;;;;;7.80;1.50;;;;;;;15.60;90.40;99560.78;8255343;28;20410;-64
2022/05/24 07:45:51;;;;;;;4.68;0.93;;;;;;;15.70;90.34;99550.38;8254595;28;20646;-64
2022/05/24 07:49:05;;;;;;;1.90;0.73;;;;;;;16.21;89.87;99544.66;8250952;28;20133;-64
2022/05/24 07:53:05;;;;;;;6.90;1.75;;;;;;;16.33;88.16;99551.25;8252374;28;20160;-64
2022/05/24 07:57:10;;;;;;;5.60;0.93;;;;;;;16.53;87.00;99560.44;8255059;28;20552;-64
2022/05/24 08:01:11;;;;;;;3.35;0.77;;;;;;;17.18;87.46;99552.50;8255282;28;20050;-64
2022/05/24 08:05:11;;;;;;;3.10;0.50;;;;;;;17.28;82.92;99558.38;8254779;28;20062;-64
2022/05/24 08:09:12;;;;;;;4.73;0.80;;;;;;;16.99;81.54;99564.19;8251864;28;20492;-64
2022/05/24 08:13:15;;;;;;;4.20;0.60;;;;;;;17.03;82.21;99570.94;8252514;28;20282;-64
2022/05/24 08:17:15;;;;;;;5.10;0.82;;;;;;;16.94;80.66;99577.63;8255118;28;20177;-64
2022/05/24 08:21:16;;;;;;;2.43;0.50;;;;;;;17.00;80.53;99582.25;8252691;28;20097;-64
2022/05/24 08:25:17;;;;;;;3.15;0.47;;;;;;;16.77;79.44;99592.69;8254616;28;20345;-64
2022/05/24 08:29:17;;;;;;;6.25;0.60;;;;;;;16.41;81.15;99597.47;8254612;28;20053;-64
2022/05/24 08:33:18;;;;;;;2.53;0.60;;;;;;;16.08;79.91;99593.66;8251192;28;20086;-64
2022/05/24 08:37:18;;;;;;;7.88;0.75;;;;;;;16.76;79.27;99593.69;8241579;28;20373;-64
2022/05/24 08:41:50;;;;;;;0.98;0.55;;;;;;;17.42;78.05;99590.19;8243736;28;20521;-64
2022/05/24 08:50:15;;;;;;;2.60;0.57;;;;;;;17.76;73.44;99600.97;8241926;28;20123;-64
2022/05/24 08:54:19;;;;;;;4.90;0.73;;;;;;;17.32;75.47;99604.22;8236114;28;20031;-64
2022/05/24 08:58:41;;;;;;;1.25;0.47;;;;;;;18.06;76.13;99601.41;8253279;28;20469;-64
2022/05/24 09:02:45;;;;;;;1.65;0.60;;;;;;;18.31;72.25;99616.97;8254264;28;20555;-64
2022/05/24 09:07:00;;;;;;;2.50;0.70;;;;;;;18.36;72.58;99619.91;8239680;28;20043;-64
2022/05/24 09:11:12;;;;;;;4.13;0.50;;;;;;;18.30;71.05;99626.22;8251294;28;20041;-64
2022/05/24 09:15:26;;;;;;;3.92;0.40;;;;;;;17.97;71.13;99630.03;8253457;28;20551;-64
2022/05/24 09:19:34;;;;;;;2.53;0.65;;;;;;;18.22;70.14;99631.06;8234690;28;20049;-64
2022/05/24 09:23:44;;;;;;;1.33;0.40;;;;;;;18.08;70.36;99643.09;8254754;28;20522;-64
2022/05/24 09:27:53;;;;;;;3.47;0.75;;;;;;;17.57;71.78;99648.28;8254916;28;20104;-64
2022/05/24 09:31:56;;;;;;;3.97;0.45;;;;;;;17.32;73.92;99656.13;8254836;28;20498;-64
2022/05/24 09:36:00;;;;;;;2.10;0.60;;;;;;;17.47;72.56;99661.47;8249734;28;20097;-64
2022/05/24 09:40:22;;;;;;;4.43;0.60;;;;;;;18.07;71.34;99668.75;8245752;28;20037;-64
2022/05/24 09:44:23;;;;;;;4.30;0.90;;;;;;;18.71;68.69;99672.53;8254497;28;20415;-64
2022/05/24 09:48:28;;;;;;;2.33;0.70;;;;;;;19.41;65.48;99670.69;8251284;28;20046;-64
2022/05/24 09:52:28;;;;;;;0.90;0.30;;;;;;;20.10;64.67;99664.34;8241445;28;20476;-64
2022/05/24 09:56:33;;;;;;;1.45;0.55;;;;;;;20.48;61.62;99667.84;8248618;28;20149;-64
2022/05/24 10:00:33;;;;;;;3.53;0.95;;;;;;;19.52;62.75;99678.19;8252857;28;20410;-64
2022/05/24 10:04:36;;;;;;;1.98;0.50;;;;;;;19.24;63.44;99691.38;8248802;28;20145;-64
2022/05/24 10:08:41;;;;;;;2.85;0.73;;;;;;;19.39;64.17;99685.63;8254829;28;20038;-64
2022/05/24 10:17:29;;;;;;;1.73;0.60;;;;;;;19.66;63.30;99691.84;8347609;28;20391;-62
2022/05/24 10:25:56;;;;;;;0.90;0.40;;;;;;;23.58;56.26;99683.81;8314677;28;20363;-62
2022/05/24 10:30:06;;;;;;;4.45;0.70;;;;;;;23.52;55.03;99697.72;8296767;28;20045;-62
2022/05/24 10:43:03;;;;;;;4.70;0.73;;;;;;;23.52;53.82;99708.75;8401327;27;20914;-62
2022/05/24 10:47:14;;;;;;;1.42;0.52;;;;;;;23.05;56.74;99696.94;8384946;28;20094;-62
2022/05/24 10:55:57;;;;;;;5.45;0.75;;;;;;;23.01;56.59;99706.78;8342805;27;20366;-62
2022/05/24 11:00:13;;;;;;;3.33;0.82;;;;;;;21.35;60.76;99709.69;8347004;28;20122;-62
2022/05/24 11:04:22;;;;;;;4.70;0.80;;;;;;;20.77;61.27;99702.88;8346073;28;20049;-63
2022/05/24 11:08:48;;;;;;;2.63;0.82;;;;;;;20.16;63.95;99708.22;8325559;28;20465;-63
2022/05/24 11:12:56;;;;;;;3.28;0.65;;;;;;;19.57;63.51;99713.19;8326680;28;20516;-63
2022/05/24 11:16:57;;;;;;;1.90;0.50;;;;;;;19.08;64.46;99702.81;8346325;28;20464;-63
2022/05/24 11:21:07;;;;;;;2.58;0.32;;;;;;;19.27;62.65;99712.88;8358988;28;20041;-63
2022/05/24 11:25:28;;;;;;;1.55;0.52;;;;;;;21.37;60.62;99702.03;8375611;28;20457;-63
2022/05/24 11:29:47;;;;;;;1.05;0.32;;;;;;;24.41;53.50;99689.53;8350614;28;20037;-63
2022/05/24 11:33:48;;;;;;;1.05;0.52;;;;;;;25.52;49.85;99701.25;8342592;28;20041;-63
2022/05/24 11:37:52;;;;;;;1.45;0.25;;;;;;;25.49;51.39;99706.50;8342442;28;20041;-63
2022/05/24 11:42:33;;;;;;;1.30;0.30;;;;;;;23.01;53.50;99718.66;8343121;28;20116;-63
2022/05/24 11:50:50;;;;;;;1.80;0.50;;;;;;;20.57;59.04;99726.94;8394701;27;20397;-62
2022/05/24 11:59:07;;;;;;;0.90;0.40;;;;;;;23.23;55.43;99734.59;8347149;27;20433;-62
2022/05/24 12:08:07;;;;;;;2.00;0.40;;;;;;;21.82;56.62;99739.16;8344290;28;20497;-62
2022/05/24 12:12:19;;;;;;;3.88;1.05;;;;;;;21.45;58.76;99737.50;8344616;28;20036;-63
2022/05/24 12:20:56;;;;;;;2.90;0.40;;;;;;;20.93;59.00;99749.88;8334165;28;20987;-62
2022/05/24 12:24:59;;;;;;;1.80;0.90;;;;;;;20.88;57.68;99737.84;8328755;28;20128;-62
2022/05/24 12:29:00;;;;;;;2.38;0.50;;;;;;;20.90;59.42;99722.84;8329801;28;20037;-62
2022/05/24 12:33:31;;;;;;;0.85;0.60;;;;;;;21.06;57.12;99726.91;8317365;28;20029;-64
2022/05/24 12:37:35;;;;;;;0.80;0.32;;;;;;;21.14;54.17;99732.13;8317627;28;20037;-64
2022/05/24 12:41:56;;;;;;;2.00;0.50;;;;;;;21.35;54.59;99726.19;8328531;28;20386;-63
2022/05/24 12:46:00;;;;;;;2.00;0.88;;;;;;;21.18;55.83;99725.97;8341591;28;20088;-63
2022/05/24 12:50:00;;;;;;;3.45;0.60;;;;;;;21.30;54.07;99726.03;8341914;28;20045;-63
2022/05/24 12:54:26;;;;;;;2.70;0.60;;;;;;;21.03;55.97;99721.88;8350073;28;20524;-63
2022/05/24 13:02:43;;;;;;;1.13;0.40;;;;;;;20.69;55.17;99730.63;8419721;27;20480;-62
2022/05/24 13:06:44;;;;;;;2.03;0.60;;;;;;;21.02;56.93;99726.53;8411584;28;20048;-62
2022/05/24 13:10:45;;;;;;;1.23;0.45;;;;;;;21.00;56.61;99725.94;8399694;28;20544;-62
2022/05/24 13:14:58;;;;;;;2.60;0.57;;;;;;;20.93;57.92;99738.03;8391948;28;20032;-62
2022/05/24 13:18:58;;;;;;;2.90;0.45;;;;;;;20.53;56.64;99733.94;8384515;28;20036;-62
2022/05/24 13:23:07;;;;;;;1.42;0.65;;;;;;;20.49;56.81;99746.44;8416538;28;20098;-63
2022/05/24 13:27:08;;;;;;;1.08;0.45;;;;;;;20.93;57.56;99749.88;8396224;28;20131;-63
2022/05/24 13:35:44;;;;;;;1.30;0.35;;;;;;;20.77;53.97;99755.91;8413707;28;20455;-63
2022/05/24 13:39:49;;;;;;;3.72;0.50;;;;;;;21.10;56.58;99758.38;8414491;28;20051;-63
2022/05/24 13:44:19;;;;;;;2.25;0.60;;;;;;;20.91;55.58;99767.63;8406895;28;20032;-63
2022/05/24 13:48:24;;;;;;;1.60;0.52;;;;;;;20.76;55.46;99769.88;8396670;28;20060;-63
2022/05/24 13:52:29;;;;;;;2.28;0.50;;;;;;;20.74;55.93;99772.84;8411770;28;20028;-63
2022/05/24 13:56:47;;;;;;;1.90;0.60;;;;;;;20.72;59.54;99764.00;8413173;28;20035;-63
2022/05/24 14:00:51;;;;;;;3.22;0.63;;;;;;;20.82;59.83;99763.47;8416559;28;20507;-63
2022/05/24 14:04:52;;;;;;;3.10;0.52;;;;;;;20.49;59.28;99763.75;8415080;28;20032;-63
2022/05/24 14:08:55;;;;;;;4.90;0.83;;;;;;;20.62;59.69;99762.81;8402410;28;20040;-63
2022/05/24 14:12:55;;;;;;;3.38;0.50;;;;;;;20.38;57.82;99771.88;8383428;28;20278;-64
2022/05/24 14:16:56;;;;;;;1.80;0.68;;;;;;;20.21;61.24;99787.16;8363683;28;20040;-64
2022/05/24 14:20:57;;;;;;;2.22;0.75;;;;;;;19.72;61.38;99793.28;8369775;28;20140;-64
2022/05/24 14:24:57;;;;;;;5.72;1.25;;;;;;;19.29;61.37;99797.66;8374749;28;20067;-64
2022/05/24 14:28:57;;;;;;;4.10;0.85;;;;;;;19.56;62.09;99798.41;8381369;28;20509;-64
2022/05/24 14:33:00;;;;;;;4.07;1.07;;;;;;;19.74;63.81;99809.53;8387162;28;20362;-64
2022/05/24 14:37:01;;;;;;;3.58;1.10;;;;;;;19.86;67.20;99821.53;8388301;28;20332;-64
2022/05/24 14:41:16;;;;;;;5.07;0.70;;;;;;;19.79;64.90;99842.66;8387867;28;20036;-64
2022/05/24 14:45:19;;;;;;;4.78;0.75;;;;;;;19.07;67.46;99851.84;8375013;28;20044;-64
2022/05/24 14:49:19;;;;;;;7.38;0.95;;;;;;;18.53;66.94;99853.03;8378518;28;20059;-64
2022/05/24 14:53:20;;;;;;;3.90;0.65;;;;;;;18.23;70.13;99860.72;8361904;28;20041;-64
2022/05/24 14:57:20;;;;;;;3.88;0.60;;;;;;;18.38;70.14;99863.31;8351132;28;20353;-64
2022/05/24 15:01:22;;;;;;;3.38;0.68;;;;;;;18.79;72.42;99881.28;8332089;28;20125;-64
2022/05/24 15:05:22;;;;;;;3.42;0.65;;;;;;;18.52;71.50;99884.22;8344998;28;20037;-64
2022/05/24 15:18:03;;;;;;;4.22;0.75;;;;;;;18.35;71.78;99878.22;8347255;28;20521;-64
2022/05/24 15:22:04;;;;;;;6.00;0.70;;;;;;;17.97;70.69;99878.91;8352800;28;20422;-64
2022/05/24 15:26:09;;;;;;;2.72;0.82;;;;;;;17.60;71.96;99880.22;8322253;28;20069;-64
2022/05/24 15:30:11;;;;;;;4.55;1.00;;;;;;;17.62;73.17;99886.28;8345346;28;20045;-64
2022/05/24 15:34:11;;;;;;;3.85;1.00;;;;;;;18.04;76.01;99888.84;8343975;28;20065;-64
2022/05/24 15:38:12;;;;;;;1.88;0.70;;;;;;;18.21;73.97;99884.69;8337465;28;20044;-63
2022/05/24 15:42:12;;;;;;;2.38;0.80;;;;;;;18.25;71.96;99886.00;8338508;28;20060;-64
2022/05/24 15:46:14;;;;;;;7.00;1.52;;;;;;;18.01;71.50;99891.13;8353679;28;20044;-64
2022/05/24 15:50:15;;;;;;;4.25;0.95;;;;;;;18.24;73.66;99906.16;8353692;28;20120;-64
2022/05/24 15:54:15;;;;;;;4.40;0.90;;;;;;;18.06;72.75;99908.66;8345903;28;20082;-64
2022/05/24 15:58:15;;;;;;;4.05;1.10;;;;;;;18.34;73.25;99912.13;8321096;28;20033;-64
2022/05/24 16:02:16;;;;;;;3.00;0.80;;;;;;;18.41;71.83;99915.75;8332410;28;20069;-64
2022/05/24 16:10:37;;;;;;;3.70;0.80;;;;;;;18.35;70.31;99930.22;8326770;28;20271;-64
2022/05/24 16:14:40;;;;;;;2.65;1.13;;;;;;;17.97;70.14;99926.28;8348433;28;20076;-64
2022/05/24 16:18:41;;;;;;;3.20;1.20;;;;;;;17.90;71.56;99925.38;8352906;28;20572;-64
2022/05/24 16:22:44;;;;;;;3.05;1.23;;;;;;;17.81;71.55;99937.53;8334817;28;20607;-64
2022/05/24 16:26:45;;;;;;;2.95;1.55;;;;;;;17.80;70.51;99935.84;8318911;28;20041;-64
2022/05/24 16:30:46;;;;;;;2.33;1.33;;;;;;;17.77;71.14;99929.91;8340694;28;20090;-64
2022/05/24 16:34:46;;;;;;;3.45;1.27;;;;;;;17.87;70.56;99930.41;8342609;28;20124;-64
2022/05/24 16:38:46;;;;;;;3.25;1.00;;;;;;;18.03;70.79;99930.94;8342128;28;20040;-64
2022/05/24 16:42:47;;;;;;;5.20;1.00;;;;;;;18.18;67.73;99933.53;8337909;28;20127;-64
2022/05/24 16:46:48;;;;;;;1.73;0.77;;;;;;;18.05;66.66;99934.28;8337916;28;20362;-64
2022/05/24 16:50:50;;;;;;;1.67;0.52;;;;;;;17.84;65.89;99948.06;8346474;28;20045;-64
2022/05/24 16:59:11;;;;;;;1.33;0.30;;;;;;;17.92;63.94;99950.66;8341707;28;20045;-63
2022/05/24 17:03:13;;;;;;;0.90;0.32;;;;;;;17.96;64.46;99946.44;8341098;28;20045;-63
2022/05/24 17:07:13;;;;;;;1.92;0.50;;;;;;;18.04;64.83;99940.81;8330901;28;20090;-63
2022/05/24 17:11:18;;;;;;;1.23;0.50;;;;;;;18.20;64.44;99943.22;8336095;28;20064;-63
2022/05/24 17:15:22;;;;;;;1.35;0.30;;;;;;;18.21;63.92;99944.06;8332872;28;20132;-63
2022/05/24 17:19:22;;;;;;;;;;;;;;;18.13;63.23;99942.34;8329756;28;20049;-63
2022/05/24 17:23:25;;;;;;;0.85;0.40;;;;;;;18.21;64.32;99955.84;8345291;28;19925;-63
2022/05/24 17:27:26;;;;;;;1.25;0.43;;;;;;;18.17;64.24;99951.81;8336794;28;20223;-64
2022/05/24 17:31:26;;;;;;;2.20;0.30;;;;;;;18.13;65.07;99956.03;8341850;28;20064;-64
2022/05/24 17:35:27;;;;;;;2.55;0.43;;;;;;;18.14;64.88;99965.91;8336447;28;20086;-64
2022/05/24 17:39:27;;;;;;;1.50;0.40;;;;;;;18.02;65.70;99967.53;8320992;28;20047;-64
2022/05/24 17:43:32;;;;;;;3.13;0.60;;;;;;;17.94;66.13;99975.91;8346053;28;20126;-64
2022/05/24 17:47:34;;;;;;;2.55;0.70;;;;;;;17.91;66.98;99987.25;8341196;28;20056;-64
2022/05/24 17:51:34;;;;;;;3.03;0.60;;;;;;;17.96;68.28;99987.47;8350849;28;20571;-64
2022/05/24 17:55:37;;;;;;;3.40;0.80;;;;;;;17.83;68.54;99995.59;8337794;28;20452;-64
2022/05/24 17:59:38;;;;;;;3.33;0.73;;;;;;;17.67;68.70;99995.91;8346990;28;20068;-64
2022/05/24 18:03:39;;;;;;;2.15;0.70;;;;;;;17.73;70.07;99997.84;8349179;28;20045;-65
2022/05/24 18:07:40;;;;;;;3.20;0.70;;;;;;;17.55;69.00;99992.03;8332320;28;20510;-64
2022/05/24 18:11:42;;;;;;;2.63;0.80;;;;;;;17.38;72.60;99999.63;8345892;28;20400;-64
2022/05/24 18:15:43;;;;;;;2.13;0.85;;;;;;;17.26;72.40;100003.94;8343993;28;20345;-64
2022/05/24 18:19:44;;;;;;;4.45;0.90;;;;;;;17.21;72.66;100000.09;8338425;28;20590;-64
2022/05/24 18:23:51;;;;;;;2.05;0.60;;;;;;;17.13;70.49;99997.50;8346500;28;20068;-64
2022/05/24 18:33:16;;;;;;;5.28;0.88;;;;;;;16.65;79.29;99998.25;8335332;28;20324;-64
2022/05/24 18:36:40;;;;;;;4.40;0.70;;;;;;;16.11;84.41;99994.13;8337552;28;20120;-64
2022/05/24 18:40:40;;;;;;;2.25;0.60;;;;;;;15.85;82.43;99999.22;8343225;28;20045;-64
2022/05/24 18:44:41;;;;;;;1.58;0.70;;;;;;;15.81;81.16;100011.50;8328885;28;20037;-64
2022/05/24 18:48:42;;;;;;;3.47;0.95;;;;;;;15.68;86.16;100020.34;8338518;28;20045;-64
2022/05/24 18:52:43;;;;;;;1.60;0.75;;;;;;;16.05;84.68;100027.63;8330920;28;20045;-64
2022/05/24 18:56:43;;;;;;;2.47;1.05;;;;;;;16.12;84.04;100034.00;8343105;28;20051;-64
2022/05/24 19:00:44;;;;;;;3.60;0.82;;;;;;;16.25;81.99;100039.66;8332705;28;20076;-64
2022/05/24 19:04:44;;;;;;;0.93;0.50;;;;;;;16.33;81.91;100047.75;8344440;28;20037;-64
2022/05/24 19:08:45;;;;;;;3.00;0.85;;;;;;;16.18;83.22;100055.06;8344026;28;20128;-64
2022/05/24 19:12:46;;;;;;;4.47;0.63;;;;;;;15.09;90.54;100056.53;8342838;28;20029;-64
2022/05/24 19:16:46;;;;;;;2.25;0.60;;;;;;;14.66;94.07;100060.72;8342748;28;20098;-64
2022/05/24 19:20:47;;;;;;;3.42;0.60;;;;;;;14.31;92.52;100058.50;8343816;28;20041;-64
2022/05/24 19:24:48;;;;;;;3.33;0.70;;;;;;;14.38;94.91;100055.91;8344847;28;20048;-64
2022/05/24 19:28:49;;;;;;;2.67;0.60;;;;;;;14.38;93.89;100056.78;8342887;28;20036;-64
2022/05/24 19:32:49;;;;;;;2.60;0.57;;;;;;;14.46;90.00;100064.91;8346933;28;20044;-64
2022/05/24 19:36:50;;;;;;;3.25;0.68;;;;;;;14.62;91.09;100070.28;8344749;28;20048;-64
2022/05/24 19:41:55;;;;;;;1.20;0.60;;;;;;;14.56;92.47;100081.88;8346787;28;20041;-64
2022/05/24 19:45:16;;;;;;;5.13;0.70;;;;;;;14.37;97.17;100093.16;8338507;28;20043;-64
2022/05/24 19:49:17;;;;;;;5.20;0.98;;;;;;;13.95;100.00;100103.41;8338934;28;20440;-64
2022/05/24 19:53:18;;;;;;;5.67;1.00;;;;;;;13.87;100.00;100114.28;8340672;28;20109;-64
2022/05/24 19:57:20;;;;;;;2.38;0.80;;;;;;;14.30;100.00;100113.06;8345615;28;20259;-64
2022/05/24 20:01:21;;;;;;;3.35;0.82;;;;;;;14.53;97.24;100120.31;8346372;28;20037;-64
2022/05/24 20:05:22;;;;;;;3.78;1.13;;;;;;;14.56;98.92;100128.13;8349202;28;20493;-64
2022/05/24 20:09:22;;;;;;;1.92;0.90;;;;;;;14.45;97.43;100133.09;8346472;28;20456;-64
2022/05/24 20:13:22;;;;;;;2.60;1.30;;;;;;;14.30;100.00;100143.81;8351137;28;20040;-64
2022/05/24 20:17:23;;;;;;;3.43;1.30;;;;;;;14.23;100.00;100137.38;8353584;28;20576;-64
2022/05/24 20:21:23;;;;;;;3.67;1.27;;;;;;;14.11;100.00;100138.72;8353165;28;20263;-64
2022/05/24 20:25:24;;;;;;;3.25;1.75;;;;;;;14.07;100.00;100142.81;8351694;28;20430;-64